sensor_id;sensor_type;location;lat;lon;timestamp;P1;durP1;ratioP1;P2;durP2;ratioP2
8628;SDS011;4352;49.404;11.092;2022-07-15T00:02:15;3.73;;;2.53;;
8628;SDS011;4352;49.404;11.092;2022-07-15T00:04:42;6.03;;;2.33;;
8628;SDS011;4352;49.404;11.092;2022-07-15T00:07:11;5.13;;;2.00;;
8628;SDS011;4352;49.404;11.092;2022-07-15T00:09:38;3.67;;;2.47;;
8628;SDS011;4352;49.404;11.092;2022-07-15T00:12:23;7.77;;;2.57;;
8628;SDS011;4352;49.404;11.092;2022-07-15T00:14:50;4.83;;;2.10;;
8628;SDS011;4352;49.404;11.092;2022-07-15T00:17:17;9.57;;;2.13;;
8628;SDS011;4352;49.404;11.092;2022-07-15T00:19:44;5.03;;;1.83;;
8628;SDS011;4352;49.404;11.092;2022-07-15T00:22:13;4.33;;;2.27;;
8628;SDS011;4352;49.404;11.092;2022-07-15T00:24:40;6.27;;;2.20;;
8628;SDS011;4352;49.404;11.092;2022-07-15T00:27:07;5.10;;;1.87;;
8628;SDS011;4352;49.404;11.092;2022-07-15T00:29:34;5.53;;;2.00;;
8628;SDS011;4352;49.404;11.092;2022-07-15T00:32:01;3.27;;;2.00;;
8628;SDS011;4352;49.404;11.092;2022-07-15T00:34:29;3.67;;;1.90;;
8628;SDS011;4352;49.404;11.092;2022-07-15T00:36:56;7.93;;;2.30;;
8628;SDS011;4352;49.404;11.092;2022-07-15T00:39:24;5.37;;;2.10;;
8628;SDS011;4352;49.404;11.092;2022-07-15T00:41:51;4.50;;;2.20;;
8628;SDS011;4352;49.404;11.092;2022-07-15T00:44:18;7.50;;;2.23;;
8628;SDS011;4352;49.404;11.092;2022-07-15T00:46:45;6.70;;;2.23;;
8628;SDS011;4352;49.404;11.092;2022-07-15T00:49:13;4.67;;;1.83;;
8628;SDS011;4352;49.404;11.092;2022-07-15T00:51:40;5.20;;;1.90;;
8628;SDS011;4352;49.404;11.092;2022-07-15T00:54:08;6.67;;;2.30;;
8628;SDS011;4352;49.404;11.092;2022-07-15T00:56:38;5.13;;;2.40;;
8628;SDS011;4352;49.404;11.092;2022-07-15T00:59:06;3.30;;;2.30;;
8628;SDS011;4352;49.404;11.092;2022-07-15T01:01:34;3.97;;;2.13;;
8628;SDS011;4352;49.404;11.092;2022-07-15T01:04:02;5.67;;;2.37;;
8628;SDS011;4352;49.404;11.092;2022-07-15T01:06:29;3.90;;;2.20;;
8628;SDS011;4352;49.404;11.092;2022-07-15T01:08:56;7.53;;;2.33;;
8628;SDS011;4352;49.404;11.092;2022-07-15T01:11:23;5.73;;;2.43;;
8628;SDS011;4352;49.404;11.092;2022-07-15T01:13:52;7.57;;;2.50;;
8628;SDS011;4352;49.404;11.092;2022-07-15T01:16:19;5.50;;;2.20;;
8628;SDS011;4352;49.404;11.092;2022-07-15T01:18:46;6.07;;;2.33;;
8628;SDS011;4352;49.404;11.092;2022-07-15T01:21:15;5.50;;;2.83;;
8628;SDS011;4352;49.404;11.092;2022-07-15T01:23:42;3.37;;;2.43;;
8628;SDS011;4352;49.404;11.092;2022-07-15T01:26:09;4.50;;;2.43;;
8628;SDS011;4352;49.404;11.092;2022-07-15T01:28:37;6.40;;;2.47;;
8628;SDS011;4352;49.404;11.092;2022-07-15T01:31:04;5.47;;;2.50;;
8628;SDS011;4352;49.404;11.092;2022-07-15T01:33:31;4.73;;;2.33;;
8628;SDS011;4352;49.404;11.092;2022-07-15T01:35:58;5.93;;;2.90;;
8628;SDS011;4352;49.404;11.092;2022-07-15T01:38:27;2.83;;;2.13;;
8628;SDS011;4352;49.404;11.092;2022-07-15T01:40:55;5.63;;;2.47;;
8628;SDS011;4352;49.404;11.092;2022-07-15T01:43:22;6.23;;;2.50;;
8628;SDS011;4352;49.404;11.092;2022-07-15T01:45:49;4.60;;;2.47;;
8628;SDS011;4352;49.404;11.092;2022-07-15T01:48:16;4.63;;;3.40;;
8628;SDS011;4352;49.404;11.092;2022-07-15T01:51:01;3.47;;;2.10;;
8628;SDS011;4352;49.404;11.092;2022-07-15T01:53:30;8.13;;;2.80;;
8628;SDS011;4352;49.404;11.092;2022-07-15T01:55:57;4.70;;;2.23;;
8628;SDS011;4352;49.404;11.092;2022-07-15T01:58:24;5.70;;;2.83;;
8628;SDS011;4352;49.404;11.092;2022-07-15T02:00:51;6.93;;;3.10;;
8628;SDS011;4352;49.404;11.092;2022-07-15T02:03:18;5.10;;;2.80;;
8628;SDS011;4352;49.404;11.092;2022-07-15T02:05:46;5.47;;;2.90;;
8628;SDS011;4352;49.404;11.092;2022-07-15T02:08:13;4.67;;;2.80;;
8628;SDS011;4352;49.404;11.092;2022-07-15T02:10:41;4.20;;;2.60;;
8628;SDS011;4352;49.404;11.092;2022-07-15T02:13:08;2.83;;;2.40;;
8628;SDS011;4352;49.404;11.092;2022-07-15T02:15:36;5.70;;;2.80;;
8628;SDS011;4352;49.404;11.092;2022-07-15T02:18:03;6.97;;;2.90;;
8628;SDS011;4352;49.404;11.092;2022-07-15T02:20:30;4.27;;;2.57;;
8628;SDS011;4352;49.404;11.092;2022-07-15T02:22:58;3.53;;;2.93;;
8628;SDS011;4352;49.404;11.092;2022-07-15T02:25:27;5.70;;;3.07;;
8628;SDS011;4352;49.404;11.092;2022-07-15T02:27:56;4.40;;;2.80;;
8628;SDS011;4352;49.404;11.092;2022-07-15T02:30:23;6.23;;;2.87;;
8628;SDS011;4352;49.404;11.092;2022-07-15T02:32:51;5.27;;;2.63;;
8628;SDS011;4352;49.404;11.092;2022-07-15T02:35:18;5.50;;;2.80;;
8628;SDS011;4352;49.404;11.092;2022-07-15T02:37:45;8.07;;;2.80;;
8628;SDS011;4352;49.404;11.092;2022-07-15T02:40:12;6.60;;;2.80;;
8628;SDS011;4352;49.404;11.092;2022-07-15T02:42:44;5.87;;;2.57;;
8628;SDS011;4352;49.404;11.092;2022-07-15T02:45:14;5.83;;;2.87;;
8628;SDS011;4352;49.404;11.092;2022-07-15T02:47:41;6.93;;;3.20;;
8628;SDS011;4352;49.404;11.092;2022-07-15T02:50:08;5.27;;;3.07;;
8628;SDS011;4352;49.404;11.092;2022-07-15T02:52:36;5.00;;;3.30;;
8628;SDS011;4352;49.404;11.092;2022-07-15T02:55:03;5.70;;;3.00;;
8628;SDS011;4352;49.404;11.092;2022-07-15T02:57:30;9.50;;;2.93;;
8628;SDS011;4352;49.404;11.092;2022-07-15T02:59:57;10.63;;;3.33;;
8628;SDS011;4352;49.404;11.092;2022-07-15T03:02:26;4.27;;;3.37;;
8628;SDS011;4352;49.404;11.092;2022-07-15T03:04:53;5.00;;;3.07;;
8628;SDS011;4352;49.404;11.092;2022-07-15T03:07:20;5.90;;;3.17;;
8628;SDS011;4352;49.404;11.092;2022-07-15T03:09:47;5.43;;;3.43;;
8628;SDS011;4352;49.404;11.092;2022-07-15T03:12:14;7.13;;;3.13;;
8628;SDS011;4352;49.404;11.092;2022-07-15T03:14:42;7.77;;;3.13;;
8628;SDS011;4352;49.404;11.092;2022-07-15T03:17:09;3.63;;;3.27;;
8628;SDS011;4352;49.404;11.092;2022-07-15T03:19:37;7.30;;;3.30;;
8628;SDS011;4352;49.404;11.092;2022-07-15T03:22:05;6.93;;;3.10;;
8628;SDS011;4352;49.404;11.092;2022-07-15T03:24:32;7.27;;;3.60;;
8628;SDS011;4352;49.404;11.092;2022-07-15T03:26:59;7.80;;;3.23;;
8628;SDS011;4352;49.404;11.092;2022-07-15T03:29:26;7.53;;;3.83;;
8628;SDS011;4352;49.404;11.092;2022-07-15T03:31:54;5.23;;;3.20;;
8628;SDS011;4352;49.404;11.092;2022-07-15T03:34:21;6.90;;;3.17;;
8628;SDS011;4352;49.404;11.092;2022-07-15T03:36:51;6.17;;;3.33;;
8628;SDS011;4352;49.404;11.092;2022-07-15T03:39:18;7.97;;;3.57;;
8628;SDS011;4352;49.404;11.092;2022-07-15T03:41:45;5.73;;;3.40;;
8628;SDS011;4352;49.404;11.092;2022-07-15T03:44:12;6.87;;;3.63;;
8628;SDS011;4352;49.404;11.092;2022-07-15T03:46:40;4.77;;;3.40;;
8628;SDS011;4352;49.404;11.092;2022-07-15T03:49:07;7.73;;;3.57;;
8628;SDS011;4352;49.404;11.092;2022-07-15T03:51:34;6.20;;;3.40;;
8628;SDS011;4352;49.404;11.092;2022-07-15T03:54:03;9.43;;;3.90;;
8628;SDS011;4352;49.404;11.092;2022-07-15T03:56:32;5.10;;;3.03;;
8628;SDS011;4352;49.404;11.092;2022-07-15T03:58:59;6.63;;;3.30;;
8628;SDS011;4352;49.404;11.092;2022-07-15T04:01:26;5.90;;;3.20;;
8628;SDS011;4352;49.404;11.092;2022-07-15T04:03:53;10.00;;;3.77;;
8628;SDS011;4352;49.404;11.092;2022-07-15T04:06:20;5.93;;;4.03;;
8628;SDS011;4352;49.404;11.092;2022-07-15T04:08:49;5.53;;;3.70;;
8628;SDS011;4352;49.404;11.092;2022-07-15T04:11:18;7.13;;;3.70;;
8628;SDS011;4352;49.404;11.092;2022-07-15T04:13:45;6.57;;;3.40;;
8628;SDS011;4352;49.404;11.092;2022-07-15T04:16:13;4.67;;;3.27;;
8628;SDS011;4352;49.404;11.092;2022-07-15T04:18:40;6.30;;;3.53;;
8628;SDS011;4352;49.404;11.092;2022-07-15T04:21:07;6.17;;;3.70;;
8628;SDS011;4352;49.404;11.092;2022-07-15T04:23:35;5.73;;;3.40;;
8628;SDS011;4352;49.404;11.092;2022-07-15T04:26:02;6.23;;;3.60;;
8628;SDS011;4352;49.404;11.092;2022-07-15T04:28:31;4.00;;;3.50;;
8628;SDS011;4352;49.404;11.092;2022-07-15T04:30:58;5.60;;;3.73;;
8628;SDS011;4352;49.404;11.092;2022-07-15T04:33:25;9.20;;;3.37;;
8628;SDS011;4352;49.404;11.092;2022-07-15T04:35:52;8.77;;;4.03;;
8628;SDS011;4352;49.404;11.092;2022-07-15T04:38:19;7.70;;;3.90;;
8628;SDS011;4352;49.404;11.092;2022-07-15T04:40:46;9.00;;;3.73;;
8628;SDS011;4352;49.404;11.092;2022-07-15T04:43:13;6.53;;;3.50;;
8628;SDS011;4352;49.404;11.092;2022-07-15T04:45:42;7.53;;;4.27;;
8628;SDS011;4352;49.404;11.092;2022-07-15T04:48:09;10.83;;;4.10;;
8628;SDS011;4352;49.404;11.092;2022-07-15T04:50:50;5.57;;;3.40;;
8628;SDS011;4352;49.404;11.092;2022-07-15T04:53:17;9.33;;;3.97;;
8628;SDS011;4352;49.404;11.092;2022-07-15T04:55:45;7.90;;;3.47;;
8628;SDS011;4352;49.404;11.092;2022-07-15T04:58:12;6.50;;;4.20;;
8628;SDS011;4352;49.404;11.092;2022-07-15T05:00:40;6.77;;;3.70;;
8628;SDS011;4352;49.404;11.092;2022-07-15T05:03:08;5.40;;;3.20;;
8628;SDS011;4352;49.404;11.092;2022-07-15T05:05:35;6.97;;;3.70;;
8628;SDS011;4352;49.404;11.092;2022-07-15T05:08:02;7.23;;;3.97;;
8628;SDS011;4352;49.404;11.092;2022-07-15T05:10:30;6.50;;;4.10;;
8628;SDS011;4352;49.404;11.092;2022-07-15T05:12:57;4.93;;;3.63;;
8628;SDS011;4352;49.404;11.092;2022-07-15T05:15:24;6.47;;;3.97;;
8628;SDS011;4352;49.404;11.092;2022-07-15T05:17:51;7.93;;;3.67;;
8628;SDS011;4352;49.404;11.092;2022-07-15T05:20:20;9.77;;;4.13;;
8628;SDS011;4352;49.404;11.092;2022-07-15T05:22:47;6.67;;;3.80;;
8628;SDS011;4352;49.404;11.092;2022-07-15T05:25:15;6.93;;;4.03;;
8628;SDS011;4352;49.404;11.092;2022-07-15T05:27:42;10.93;;;3.80;;
8628;SDS011;4352;49.404;11.092;2022-07-15T05:30:09;6.00;;;3.40;;
8628;SDS011;4352;49.404;11.092;2022-07-15T05:32:40;6.40;;;3.80;;
8628;SDS011;4352;49.404;11.092;2022-07-15T05:35:08;5.73;;;3.70;;
8628;SDS011;4352;49.404;11.092;2022-07-15T05:37:39;11.23;;;3.50;;
8628;SDS011;4352;49.404;11.092;2022-07-15T05:40:06;7.73;;;4.40;;
8628;SDS011;4352;49.404;11.092;2022-07-15T05:42:34;6.40;;;3.90;;
8628;SDS011;4352;49.404;11.092;2022-07-15T05:45:01;11.20;;;3.77;;
8628;SDS011;4352;49.404;11.092;2022-07-15T05:47:28;5.23;;;3.60;;
8628;SDS011;4352;49.404;11.092;2022-07-15T05:49:56;10.00;;;3.40;;
8628;SDS011;4352;49.404;11.092;2022-07-15T05:52:23;6.73;;;3.83;;
8628;SDS011;4352;49.404;11.092;2022-07-15T05:54:52;8.70;;;3.77;;
8628;SDS011;4352;49.404;11.092;2022-07-15T05:57:19;7.60;;;2.93;;
8628;SDS011;4352;49.404;11.092;2022-07-15T05:59:46;6.87;;;3.40;;
8628;SDS011;4352;49.404;11.092;2022-07-15T06:02:13;6.43;;;3.43;;
8628;SDS011;4352;49.404;11.092;2022-07-15T06:04:40;4.50;;;3.07;;
8628;SDS011;4352;49.404;11.092;2022-07-15T06:07:08;7.30;;;3.33;;
8628;SDS011;4352;49.404;11.092;2022-07-15T06:09:35;6.83;;;3.20;;
8628;SDS011;4352;49.404;11.092;2022-07-15T06:12:03;5.80;;;2.80;;
8628;SDS011;4352;49.404;11.092;2022-07-15T06:14:30;7.47;;;2.80;;
8628;SDS011;4352;49.404;11.092;2022-07-15T06:16:57;10.33;;;3.00;;
8628;SDS011;4352;49.404;11.092;2022-07-15T06:19:25;6.80;;;2.87;;
8628;SDS011;4352;49.404;11.092;2022-07-15T06:21:52;4.57;;;2.20;;
8628;SDS011;4352;49.404;11.092;2022-07-15T06:24:20;7.27;;;2.53;;
8628;SDS011;4352;49.404;11.092;2022-07-15T06:26:47;10.73;;;2.30;;
8628;SDS011;4352;49.404;11.092;2022-07-15T06:29:15;9.40;;;2.50;;
8628;SDS011;4352;49.404;11.092;2022-07-15T06:31:42;5.47;;;2.57;;
8628;SDS011;4352;49.404;11.092;2022-07-15T06:34:09;8.77;;;2.73;;
8628;SDS011;4352;49.404;11.092;2022-07-15T06:36:36;4.13;;;2.10;;
8628;SDS011;4352;49.404;11.092;2022-07-15T06:39:04;6.97;;;2.37;;
8628;SDS011;4352;49.404;11.092;2022-07-15T06:41:31;5.07;;;2.50;;
8628;SDS011;4352;49.404;11.092;2022-07-15T06:43:58;8.80;;;2.73;;
8628;SDS011;4352;49.404;11.092;2022-07-15T06:46:27;6.77;;;2.40;;
8628;SDS011;4352;49.404;11.092;2022-07-15T06:48:54;10.23;;;2.87;;
8628;SDS011;4352;49.404;11.092;2022-07-15T06:51:22;6.53;;;2.50;;
8628;SDS011;4352;49.404;11.092;2022-07-15T06:53:49;7.97;;;2.33;;
8628;SDS011;4352;49.404;11.092;2022-07-15T06:56:16;4.27;;;2.43;;
8628;SDS011;4352;49.404;11.092;2022-07-15T06:58:43;10.90;;;2.60;;
8628;SDS011;4352;49.404;11.092;2022-07-15T07:01:11;5.10;;;2.10;;
8628;SDS011;4352;49.404;11.092;2022-07-15T07:03:39;6.87;;;2.20;;
8628;SDS011;4352;49.404;11.092;2022-07-15T07:06:06;8.80;;;2.50;;
8628;SDS011;4352;49.404;11.092;2022-07-15T07:08:33;4.27;;;2.20;;
8628;SDS011;4352;49.404;11.092;2022-07-15T07:11:00;5.47;;;2.40;;
8628;SDS011;4352;49.404;11.092;2022-07-15T07:13:27;4.67;;;2.40;;
8628;SDS011;4352;49.404;11.092;2022-07-15T07:15:55;5.40;;;2.37;;
8628;SDS011;4352;49.404;11.092;2022-07-15T07:18:22;7.53;;;2.73;;
8628;SDS011;4352;49.404;11.092;2022-07-15T07:20:50;8.33;;;2.53;;
8628;SDS011;4352;49.404;11.092;2022-07-15T07:23:17;6.23;;;2.60;;
8628;SDS011;4352;49.404;11.092;2022-07-15T07:25:45;5.33;;;2.60;;
8628;SDS011;4352;49.404;11.092;2022-07-15T07:28:12;4.77;;;2.57;;
8628;SDS011;4352;49.404;11.092;2022-07-15T07:30:39;5.33;;;1.90;;
8628;SDS011;4352;49.404;11.092;2022-07-15T07:33:06;5.93;;;2.30;;
8628;SDS011;4352;49.404;11.092;2022-07-15T07:35:33;2.93;;;1.73;;
8628;SDS011;4352;49.404;11.092;2022-07-15T07:38:02;4.77;;;2.20;;
8628;SDS011;4352;49.404;11.092;2022-07-15T07:40:29;5.53;;;2.50;;
8628;SDS011;4352;49.404;11.092;2022-07-15T07:42:56;7.60;;;2.27;;
8628;SDS011;4352;49.404;11.092;2022-07-15T07:45:23;7.90;;;2.30;;
8628;SDS011;4352;49.404;11.092;2022-07-15T07:47:53;8.50;;;2.73;;
8628;SDS011;4352;49.404;11.092;2022-07-15T07:50:20;4.13;;;2.40;;
8628;SDS011;4352;49.404;11.092;2022-07-15T07:52:48;9.53;;;2.23;;
8628;SDS011;4352;49.404;11.092;2022-07-15T07:55:16;3.73;;;2.20;;
8628;SDS011;4352;49.404;11.092;2022-07-15T07:57:47;5.13;;;2.40;;
8628;SDS011;4352;49.404;11.092;2022-07-15T08:00:15;7.77;;;2.70;;
8628;SDS011;4352;49.404;11.092;2022-07-15T08:02:42;3.97;;;2.03;;
8628;SDS011;4352;49.404;11.092;2022-07-15T08:05:09;4.23;;;2.30;;
8628;SDS011;4352;49.404;11.092;2022-07-15T08:07:36;4.67;;;2.40;;
8628;SDS011;4352;49.404;11.092;2022-07-15T08:10:04;5.77;;;2.20;;
8628;SDS011;4352;49.404;11.092;2022-07-15T08:12:33;7.27;;;2.80;;
8628;SDS011;4352;49.404;11.092;2022-07-15T08:15:01;5.97;;;2.60;;
8628;SDS011;4352;49.404;11.092;2022-07-15T08:17:29;4.80;;;2.00;;
8628;SDS011;4352;49.404;11.092;2022-07-15T08:19:56;5.33;;;2.20;;
8628;SDS011;4352;49.404;11.092;2022-07-15T08:22:23;4.27;;;2.27;;
8628;SDS011;4352;49.404;11.092;2022-07-15T08:24:50;3.90;;;2.10;;
8628;SDS011;4352;49.404;11.092;2022-07-15T08:27:17;6.60;;;1.93;;
8628;SDS011;4352;49.404;11.092;2022-07-15T08:29:46;3.90;;;1.90;;
8628;SDS011;4352;49.404;11.092;2022-07-15T08:32:13;4.23;;;2.40;;
8628;SDS011;4352;49.404;11.092;2022-07-15T08:34:40;4.90;;;1.97;;
8628;SDS011;4352;49.404;11.092;2022-07-15T08:37:07;7.80;;;2.40;;
8628;SDS011;4352;49.404;11.092;2022-07-15T08:39:35;3.93;;;2.23;;
8628;SDS011;4352;49.404;11.092;2022-07-15T08:42:02;4.70;;;2.00;;
8628;SDS011;4352;49.404;11.092;2022-07-15T08:44:30;4.13;;;2.20;;
8628;SDS011;4352;49.404;11.092;2022-07-15T08:47:00;6.40;;;2.60;;
8628;SDS011;4352;49.404;11.092;2022-07-15T08:49:28;5.20;;;2.47;;
8628;SDS011;4352;49.404;11.092;2022-07-15T08:51:57;7.55;;;2.50;;
8628;SDS011;4352;49.404;11.092;2022-07-15T08:54:25;4.53;;;2.20;;
8628;SDS011;4352;49.404;11.092;2022-07-15T08:56:52;4.65;;;2.20;;
8628;SDS011;4352;49.404;11.092;2022-07-15T08:59:19;4.80;;;2.40;;
8628;SDS011;4352;49.404;11.092;2022-07-15T09:01:47;4.40;;;2.07;;
8628;SDS011;4352;49.404;11.092;2022-07-15T09:04:16;2.53;;;1.90;;
8628;SDS011;4352;49.404;11.092;2022-07-15T09:06:43;7.00;;;2.10;;
8628;SDS011;4352;49.404;11.092;2022-07-15T09:09:24;6.07;;;1.90;;
8628;SDS011;4352;49.404;11.092;2022-07-15T09:11:52;4.20;;;2.10;;
8628;SDS011;4352;49.404;11.092;2022-07-15T09:14:20;3.13;;;2.13;;
8628;SDS011;4352;49.404;11.092;2022-07-15T09:16:48;5.40;;;2.27;;
8628;SDS011;4352;49.404;11.092;2022-07-15T09:19:17;3.83;;;2.50;;
8628;SDS011;4352;49.404;11.092;2022-07-15T09:21:44;7.90;;;2.27;;
8628;SDS011;4352;49.404;11.092;2022-07-15T09:24:27;5.83;;;2.30;;
8628;SDS011;4352;49.404;11.092;2022-07-15T09:26:54;4.53;;;2.20;;
8628;SDS011;4352;49.404;11.092;2022-07-15T09:29:21;4.23;;;1.90;;
8628;SDS011;4352;49.404;11.092;2022-07-15T09:32:19;5.57;;;2.40;;
8628;SDS011;4352;49.404;11.092;2022-07-15T09:35:06;4.97;;;2.13;;
8628;SDS011;4352;49.404;11.092;2022-07-15T09:37:54;4.10;;;1.93;;
8628;SDS011;4352;49.404;11.092;2022-07-15T09:40:22;3.33;;;1.87;;
8628;SDS011;4352;49.404;11.092;2022-07-15T09:43:00;4.90;;;2.00;;
8628;SDS011;4352;49.404;11.092;2022-07-15T09:45:30;3.75;;;2.13;;
8628;SDS011;4352;49.404;11.092;2022-07-15T09:48:07;4.05;;;2.20;;
8628;SDS011;4352;49.404;11.092;2022-07-15T09:50:38;6.38;;;2.25;;
8628;SDS011;4352;49.404;11.092;2022-07-15T09:53:09;3.73;;;1.87;;
8628;SDS011;4352;49.404;11.092;2022-07-15T09:55:38;5.30;;;2.10;;
8628;SDS011;4352;49.404;11.092;2022-07-15T09:58:05;3.30;;;1.90;;
8628;SDS011;4352;49.404;11.092;2022-07-15T10:00:33;3.60;;;2.20;;
8628;SDS011;4352;49.404;11.092;2022-07-15T10:03:00;9.97;;;2.83;;
8628;SDS011;4352;49.404;11.092;2022-07-15T10:05:27;7.78;;;2.50;;
8628;SDS011;4352;49.404;11.092;2022-07-15T10:07:57;3.10;;;2.25;;
8628;SDS011;4352;49.404;11.092;2022-07-15T10:10:24;4.53;;;2.35;;
8628;SDS011;4352;49.404;11.092;2022-07-15T10:12:54;3.72;;;2.13;;
8628;SDS011;4352;49.404;11.092;2022-07-15T10:15:24;11.60;;;2.20;;
8628;SDS011;4352;49.404;11.092;2022-07-15T10:18:00;4.47;;;1.80;;
8628;SDS011;4352;49.404;11.092;2022-07-15T10:23:13;5.22;;;2.10;;
8628;SDS011;4352;49.404;11.092;2022-07-15T10:25:52;4.88;;;2.08;;
8628;SDS011;4352;49.404;11.092;2022-07-15T10:28:22;4.53;;;2.20;;
8628;SDS011;4352;49.404;11.092;2022-07-15T10:33:32;3.15;;;1.95;;
8628;SDS011;4352;49.404;11.092;2022-07-15T10:36:03;3.17;;;1.90;;
8628;SDS011;4352;49.404;11.092;2022-07-15T10:38:32;2.45;;;1.77;;
8628;SDS011;4352;49.404;11.092;2022-07-15T10:41:06;2.78;;;2.00;;
8628;SDS011;4352;49.404;11.092;2022-07-15T10:43:37;3.35;;;2.13;;
8628;SDS011;4352;49.404;11.092;2022-07-15T10:46:05;5.38;;;2.30;;
8628;SDS011;4352;49.404;11.092;2022-07-15T10:48:38;6.22;;;2.38;;
8628;SDS011;4352;49.404;11.092;2022-07-15T10:51:05;5.68;;;1.92;;
8628;SDS011;4352;49.404;11.092;2022-07-15T10:53:42;6.25;;;2.22;;
8628;SDS011;4352;49.404;11.092;2022-07-15T10:56:28;5.50;;;2.50;;
8628;SDS011;4352;49.404;11.092;2022-07-15T10:59:08;5.20;;;2.17;;
8628;SDS011;4352;49.404;11.092;2022-07-15T11:01:36;3.80;;;1.90;;
8628;SDS011;4352;49.404;11.092;2022-07-15T11:04:11;3.47;;;2.00;;
8628;SDS011;4352;49.404;11.092;2022-07-15T11:12:17;4.00;;;2.30;;
8628;SDS011;4352;49.404;11.092;2022-07-15T11:14:46;4.57;;;1.92;;
8628;SDS011;4352;49.404;11.092;2022-07-15T11:17:15;3.75;;;2.10;;
8628;SDS011;4352;49.404;11.092;2022-07-15T11:19:45;4.63;;;2.00;;
8628;SDS011;4352;49.404;11.092;2022-07-15T11:22:14;6.70;;;2.25;;
8628;SDS011;4352;49.404;11.092;2022-07-15T11:24:42;5.93;;;2.15;;
8628;SDS011;4352;49.404;11.092;2022-07-15T11:27:09;5.07;;;2.20;;
8628;SDS011;4352;49.404;11.092;2022-07-15T11:29:41;3.08;;;1.90;;
8628;SDS011;4352;49.404;11.092;2022-07-15T11:32:08;3.05;;;2.00;;
8628;SDS011;4352;49.404;11.092;2022-07-15T11:34:37;4.25;;;1.98;;
8628;SDS011;4352;49.404;11.092;2022-07-15T11:37:06;3.45;;;2.25;;
8628;SDS011;4352;49.404;11.092;2022-07-15T11:39:33;3.42;;;1.88;;
8628;SDS011;4352;49.404;11.092;2022-07-15T11:42:00;2.70;;;1.75;;
8628;SDS011;4352;49.404;11.092;2022-07-15T11:44:47;3.53;;;2.10;;
8628;SDS011;4352;49.404;11.092;2022-07-15T11:47:14;5.80;;;2.38;;
8628;SDS011;4352;49.404;11.092;2022-07-15T11:49:42;4.32;;;2.10;;
8628;SDS011;4352;49.404;11.092;2022-07-15T11:52:09;2.83;;;2.30;;
8628;SDS011;4352;49.404;11.092;2022-07-15T11:54:37;5.78;;;2.25;;
8628;SDS011;4352;49.404;11.092;2022-07-15T11:57:05;3.38;;;2.05;;
8628;SDS011;4352;49.404;11.092;2022-07-15T11:59:33;5.07;;;2.22;;
8628;SDS011;4352;49.404;11.092;2022-07-15T12:02:01;2.88;;;2.28;;
8628;SDS011;4352;49.404;11.092;2022-07-15T12:04:29;3.08;;;2.10;;
8628;SDS011;4352;49.404;11.092;2022-07-15T12:06:56;4.07;;;2.40;;
8628;SDS011;4352;49.404;11.092;2022-07-15T12:09:24;3.90;;;2.30;;
8628;SDS011;4352;49.404;11.092;2022-07-15T12:11:51;4.60;;;2.20;;
8628;SDS011;4352;49.404;11.092;2022-07-15T12:14:19;2.83;;;2.17;;
8628;SDS011;4352;49.404;11.092;2022-07-15T12:16:47;4.00;;;2.10;;
8628;SDS011;4352;49.404;11.092;2022-07-15T12:19:18;3.90;;;2.10;;
8628;SDS011;4352;49.404;11.092;2022-07-15T12:21:46;3.00;;;2.00;;
8628;SDS011;4352;49.404;11.092;2022-07-15T12:24:14;4.68;;;2.17;;
8628;SDS011;4352;49.404;11.092;2022-07-15T12:26:42;3.60;;;2.13;;
8628;SDS011;4352;49.404;11.092;2022-07-15T12:29:10;5.00;;;1.98;;
8628;SDS011;4352;49.404;11.092;2022-07-15T12:31:38;2.78;;;1.80;;
8628;SDS011;4352;49.404;11.092;2022-07-15T12:34:05;6.53;;;2.10;;
8628;SDS011;4352;49.404;11.092;2022-07-15T12:36:34;5.22;;;2.00;;
8628;SDS011;4352;49.404;11.092;2022-07-15T12:39:10;7.35;;;2.30;;
8628;SDS011;4352;49.404;11.092;2022-07-15T12:41:39;2.95;;;2.00;;
8628;SDS011;4352;49.404;11.092;2022-07-15T12:44:06;5.40;;;1.90;;
8628;SDS011;4352;49.404;11.092;2022-07-15T12:46:52;3.50;;;2.20;;
8628;SDS011;4352;49.404;11.092;2022-07-15T12:49:37;2.65;;;2.00;;
8628;SDS011;4352;49.404;11.092;2022-07-15T12:52:16;5.00;;;1.98;;
8628;SDS011;4352;49.404;11.092;2022-07-15T12:54:44;2.83;;;1.95;;
8628;SDS011;4352;49.404;11.092;2022-07-15T12:57:18;4.55;;;2.10;;
8628;SDS011;4352;49.404;11.092;2022-07-15T12:59:51;6.80;;;2.22;;
8628;SDS011;4352;49.404;11.092;2022-07-15T13:02:19;4.10;;;2.30;;
8628;SDS011;4352;49.404;11.092;2022-07-15T13:04:46;3.47;;;2.00;;
8628;SDS011;4352;49.404;11.092;2022-07-15T13:07:14;5.22;;;2.13;;
8628;SDS011;4352;49.404;11.092;2022-07-15T13:09:42;5.68;;;2.35;;
8628;SDS011;4352;49.404;11.092;2022-07-15T13:12:09;3.92;;;1.80;;
8628;SDS011;4352;49.404;11.092;2022-07-15T13:14:37;6.05;;;2.20;;
8628;SDS011;4352;49.404;11.092;2022-07-15T13:17:05;9.20;;;2.00;;
8628;SDS011;4352;49.404;11.092;2022-07-15T13:19:32;2.78;;;1.90;;
8628;SDS011;4352;49.404;11.092;2022-07-15T13:22:00;3.45;;;2.15;;
8628;SDS011;4352;49.404;11.092;2022-07-15T13:24:27;2.67;;;1.70;;
8628;SDS011;4352;49.404;11.092;2022-07-15T13:26:56;5.38;;;2.00;;
8628;SDS011;4352;49.404;11.092;2022-07-15T13:29:24;3.28;;;2.00;;
8628;SDS011;4352;49.404;11.092;2022-07-15T13:31:51;3.13;;;1.88;;
8628;SDS011;4352;49.404;11.092;2022-07-15T13:34:18;3.58;;;2.05;;
8628;SDS011;4352;49.404;11.092;2022-07-15T13:36:45;5.07;;;2.30;;
8628;SDS011;4352;49.404;11.092;2022-07-15T13:39:12;4.50;;;1.95;;
8628;SDS011;4352;49.404;11.092;2022-07-15T13:41:39;6.78;;;2.25;;
8628;SDS011;4352;49.404;11.092;2022-07-15T13:44:09;4.18;;;2.00;;
8628;SDS011;4352;49.404;11.092;2022-07-15T13:46:36;3.88;;;2.20;;
8628;SDS011;4352;49.404;11.092;2022-07-15T13:49:03;3.65;;;2.13;;
8628;SDS011;4352;49.404;11.092;2022-07-15T13:51:30;3.03;;;1.98;;
8628;SDS011;4352;49.404;11.092;2022-07-15T13:53:57;5.68;;;2.00;;
8628;SDS011;4352;49.404;11.092;2022-07-15T13:56:24;2.65;;;1.98;;
8628;SDS011;4352;49.404;11.092;2022-07-15T13:58:51;3.78;;;2.10;;
8628;SDS011;4352;49.404;11.092;2022-07-15T14:01:24;2.38;;;1.90;;
8628;SDS011;4352;49.404;11.092;2022-07-15T14:03:52;7.35;;;2.20;;
8628;SDS011;4352;49.404;11.092;2022-07-15T14:06:19;6.63;;;1.63;;
8628;SDS011;4352;49.404;11.092;2022-07-15T14:08:47;1.77;;;1.65;;
8628;SDS011;4352;49.404;11.092;2022-07-15T14:11:14;4.25;;;2.10;;
8628;SDS011;4352;49.404;11.092;2022-07-15T14:13:42;6.38;;;2.15;;
8628;SDS011;4352;49.404;11.092;2022-07-15T14:16:10;3.25;;;1.83;;
8628;SDS011;4352;49.404;11.092;2022-07-15T14:18:41;3.15;;;1.80;;
8628;SDS011;4352;49.404;11.092;2022-07-15T14:21:12;4.55;;;2.00;;
8628;SDS011;4352;49.404;11.092;2022-07-15T14:23:41;2.42;;;1.80;;
8628;SDS011;4352;49.404;11.092;2022-07-15T14:26:08;6.03;;;2.03;;
8628;SDS011;4352;49.404;11.092;2022-07-15T14:28:36;5.27;;;2.03;;
8628;SDS011;4352;49.404;11.092;2022-07-15T14:31:04;4.00;;;1.90;;
8628;SDS011;4352;49.404;11.092;2022-07-15T14:33:31;2.80;;;1.70;;
8628;SDS011;4352;49.404;11.092;2022-07-15T14:35:59;5.60;;;2.15;;
8628;SDS011;4352;49.404;11.092;2022-07-15T14:38:27;4.97;;;1.83;;
8628;SDS011;4352;49.404;11.092;2022-07-15T14:40:55;4.85;;;2.20;;
8628;SDS011;4352;49.404;11.092;2022-07-15T14:43:22;3.22;;;1.95;;
8628;SDS011;4352;49.404;11.092;2022-07-15T14:45:49;6.65;;;2.17;;
8628;SDS011;4352;49.404;11.092;2022-07-15T14:48:17;3.75;;;1.95;;
8628;SDS011;4352;49.404;11.092;2022-07-15T14:50:46;5.15;;;2.20;;
8628;SDS011;4352;49.404;11.092;2022-07-15T14:53:16;3.72;;;1.50;;
8628;SDS011;4352;49.404;11.092;2022-07-15T14:55:43;4.30;;;1.90;;
8628;SDS011;4352;49.404;11.092;2022-07-15T14:58:11;2.47;;;1.70;;
8628;SDS011;4352;49.404;11.092;2022-07-15T15:00:38;5.28;;;2.42;;
8628;SDS011;4352;49.404;11.092;2022-07-15T15:03:06;2.67;;;1.92;;
8628;SDS011;4352;49.404;11.092;2022-07-15T15:05:33;5.10;;;2.17;;
8628;SDS011;4352;49.404;11.092;2022-07-15T15:08:00;6.18;;;2.20;;
8628;SDS011;4352;49.404;11.092;2022-07-15T15:10:29;1.90;;;1.80;;
8628;SDS011;4352;49.404;11.092;2022-07-15T15:12:56;3.13;;;2.20;;
8628;SDS011;4352;49.404;11.092;2022-07-15T15:15:23;8.40;;;2.17;;
8628;SDS011;4352;49.404;11.092;2022-07-15T15:17:50;9.63;;;2.22;;
8628;SDS011;4352;49.404;11.092;2022-07-15T15:20:18;4.75;;;2.20;;